Terminal Aerodrome Forecast
Issued by NWS

Home | Current Version | Previous Version | Text Only | Print | Product List | Glossary On
Versions: 1 2 3 4 5 6 7 8 9 10 11 12 13 14
687
FTUS43 KOAX 271120
TAFBFF
TAF
KBFF 271120Z 2712/2812 02012KT P6SM VCSH SCT050 OVC100
      TEMPO 2714/2718 4SM -SHRA BR BKN040
     FM271800 06012KT P6SM VCTS BKN050CB
     FM280100 04010KT P6SM BKN100
     FM280400 VRB03KT P6SM SCT200=

USA.gov is the U.S. government's official web portal to all federal, state and local government web resources and services.